ADDS METAR Data INFO
IDs: Format: Raw Decoded Include TAF

Data at: 0027 UTC 23 Jun 2018

METAR for:KAXV (Wapakoneta/Armstrong, OH, US)
Text:KAXV 230015Z AUTO 07003KT 10SM SCT048 SCT070 BKN120 22/22 A2968 RMK AO2
Temperature: 22.0°C ( 72°F)
Dewpoint: 22.0°C ( 72°F) [RH = 100%]
Pressure (altimeter):29.68 inches Hg (1005.2 mb)
Winds:from the ENE (70 degrees) at 3 MPH (3 knots; 1.5 m/s)
Visibility:10 or more sm (16+ km)
Ceiling:12000 feet AGL
Clouds: scattered clouds at 4800 feet AGL, scattered clouds at 7000 feet AGL, broken clouds at 12000 feet AGL
QC Flag:automated observation with no human augmentation